createdAt,value
2023-03-03T00:00:34.348Z,38.30
2023-03-03T00:05:34.226Z,36.30
2023-03-03T00:10:34.199Z,36.30
2023-03-03T00:15:34.143Z,38.90
2023-03-03T00:20:34.057Z,38.70
2023-03-03T00:25:50.250Z,37.60
2023-03-03T00:30:34.022Z,37.10
2023-03-03T00:35:33.906Z,40.00
2023-03-03T00:40:33.787Z,40.00
2023-03-03T00:45:33.715Z,39.20
2023-03-03T00:50:33.672Z,38.90
2023-03-03T00:55:33.658Z,37.90
2023-03-03T01:00:34.257Z,37.40
2023-03-03T01:05:33.444Z,36.60
2023-03-03T01:10:33.425Z,36.40
2023-03-03T01:15:33.433Z,36.10
2023-03-03T01:20:33.273Z,35.90
2023-03-03T01:25:33.251Z,35.80
2023-03-03T01:30:33.195Z,33.30
2023-03-03T01:35:33.137Z,34.60
2023-03-03T01:40:33.072Z,35.50
2023-03-03T01:45:32.991Z,35.20
2023-03-03T01:50:32.919Z,37.80
2023-03-03T01:55:32.934Z,37.40
2023-03-03T02:00:32.765Z,36.00
2023-03-03T02:05:32.706Z,35.10
2023-03-03T02:10:32.720Z,33.10
2023-03-03T02:15:32.597Z,31.20
2023-03-03T02:20:32.624Z,31.40
2023-03-03T02:25:32.492Z,31.60
2023-03-03T02:30:32.366Z,33.60
2023-03-03T02:35:32.392Z,33.50
2023-03-03T02:40:32.304Z,33.30
2023-03-03T02:45:32.195Z,32.00
2023-03-03T02:50:32.799Z,30.80
2023-03-03T02:55:32.050Z,33.10
2023-03-03T03:00:32.055Z,30.70
2023-03-03T03:05:31.976Z,31.10
2023-03-03T03:10:31.939Z,29.30
2023-03-03T03:15:31.783Z,29.00
2023-03-03T03:20:31.777Z,27.30
2023-03-03T03:25:31.754Z,28.60
2023-03-03T03:30:31.613Z,29.80
2023-03-03T03:35:31.939Z,30.10
2023-03-03T03:40:31.494Z,28.80
2023-03-03T03:45:31.402Z,28.70
2023-03-03T03:50:31.444Z,28.00
2023-03-03T03:55:31.333Z,27.80
2023-03-03T04:00:31.222Z,28.20
2023-03-03T04:05:31.201Z,27.50
2023-03-03T04:10:31.117Z,26.10
2023-03-03T04:15:31.162Z,27.30
2023-03-03T04:20:30.959Z,26.70
2023-03-03T04:25:30.927Z,26.70
2023-03-03T04:30:30.939Z,26.40
2023-03-03T04:35:30.821Z,24.80
2023-03-03T04:40:30.724Z,23.40
2023-03-03T04:45:30.637Z,24.00
2023-03-03T04:50:30.668Z,23.20
2023-03-03T04:55:30.520Z,23.10
2023-03-03T05:00:30.577Z,23.40
2023-03-03T05:05:30.514Z,24.30
2023-03-03T05:10:30.337Z,23.00
2023-03-03T05:15:30.263Z,22.90
2023-03-03T05:20:30.326Z,21.80
2023-03-03T05:25:30.160Z,22.40
2023-03-03T05:30:30.208Z,22.30
2023-03-03T05:35:30.201Z,23.10
2023-03-03T05:40:30.036Z,22.60
2023-03-03T05:45:29.907Z,22.20
2023-03-03T05:50:29.876Z,22.50
2023-03-03T05:55:29.778Z,22.60
2023-03-03T06:00:29.728Z,23.50
2023-03-03T06:05:29.704Z,21.90
2023-03-03T06:10:29.604Z,23.70
2023-03-03T06:15:29.538Z,22.20
2023-03-03T06:20:29.409Z,22.80
2023-03-03T06:25:29.397Z,22.50
2023-03-03T06:30:29.310Z,22.90
2023-03-03T06:35:29.217Z,21.50
2023-03-03T06:40:29.200Z,20.80
2023-03-03T06:45:29.205Z,23.00
2023-03-03T06:50:29.029Z,23.90
2023-03-03T06:55:28.983Z,23.40
2023-03-03T07:00:30.985Z,20.70
2023-03-03T07:05:28.874Z,22.50
2023-03-03T07:10:28.781Z,22.70
2023-03-03T07:15:28.708Z,19.90
2023-03-03T07:20:28.720Z,18.70
2023-03-03T07:25:28.630Z,19.10
2023-03-03T07:30:28.598Z,18.80
2023-03-03T07:35:28.513Z,19.10
2023-03-03T07:40:28.491Z,19.10
2023-03-03T07:45:28.365Z,18.60
2023-03-03T07:50:28.346Z,20.00
2023-03-03T07:55:28.218Z,19.80
2023-03-03T08:00:28.260Z,17.30
2023-03-03T08:05:28.160Z,16.50
2023-03-03T08:10:28.144Z,15.50
2023-03-03T08:15:28.015Z,15.70
2023-03-03T08:20:27.945Z,15.80
2023-03-03T08:25:27.841Z,15.70
2023-03-03T08:30:27.816Z,14.70
2023-03-03T08:35:27.787Z,13.80
2023-03-03T08:40:27.654Z,13.90
2023-03-03T08:45:28.011Z,12.40
2023-03-03T08:50:27.551Z,13.20
2023-03-03T08:55:27.529Z,12.60
2023-03-03T09:00:27.375Z,13.40
2023-03-03T09:05:27.338Z,13.20
2023-03-03T09:10:27.264Z,12.50
2023-03-03T09:15:27.241Z,13.10
2023-03-03T09:20:27.134Z,12.10
2023-03-03T09:25:27.128Z,10.50
2023-03-03T09:30:27.010Z,11.30
2023-03-03T09:35:26.974Z,10.30
2023-03-03T09:40:27.041Z,9.30
2023-03-03T09:45:26.915Z,9.40
2023-03-03T09:50:27.077Z,10.30
2023-03-03T09:55:26.680Z,8.10
2023-03-03T10:00:26.617Z,7.40
2023-03-03T10:05:26.603Z,7.80
2023-03-03T10:10:26.580Z,7.10
2023-03-03T10:15:26.472Z,6.90
2023-03-03T10:20:26.366Z,8.00
2023-03-03T10:25:26.322Z,8.20
2023-03-03T10:30:38.957Z,7.70
2023-03-03T10:35:27.254Z,5.30
2023-03-03T10:40:26.118Z,6.70
2023-03-03T10:45:26.020Z,7.00
2023-03-03T10:50:26.000Z,6.80
2023-03-03T10:55:25.891Z,6.90
2023-03-03T11:00:25.827Z,6.50
2023-03-03T11:05:25.777Z,7.20
2023-03-03T11:10:25.718Z,6.60
2023-03-03T11:15:25.668Z,5.60
2023-03-03T11:20:25.565Z,6.30
2023-03-03T11:25:25.598Z,6.30
2023-03-03T11:30:25.444Z,6.80
2023-03-03T11:35:25.412Z,6.90
2023-03-03T11:40:25.294Z,6.70
2023-03-03T11:45:25.262Z,6.80
2023-03-03T11:50:25.169Z,6.30
2023-03-03T11:55:25.114Z,7.00
2023-03-03T12:00:25.051Z,6.00
2023-03-03T12:05:25.018Z,7.10
2023-03-03T12:10:24.993Z,7.30
2023-03-03T12:15:24.908Z,6.90
2023-03-03T12:20:24.843Z,6.90
2023-03-03T12:25:24.830Z,5.90
2023-03-03T12:30:24.713Z,5.90
2023-03-03T12:35:24.678Z,6.10
2023-03-03T12:40:24.560Z,5.30
2023-03-03T12:45:24.511Z,5.00
2023-03-03T12:50:24.497Z,5.00
2023-03-03T12:55:24.468Z,3.50
2023-03-03T13:00:24.448Z,4.00
2023-03-03T13:05:24.273Z,4.60
2023-03-03T13:10:24.195Z,4.40
2023-03-03T13:15:31.621Z,4.70
2023-03-03T13:20:25.085Z,5.10
2023-03-03T13:25:24.066Z,5.80
2023-03-03T13:30:23.944Z,6.30
2023-03-03T13:35:23.962Z,6.60
2023-03-03T13:40:23.805Z,6.10
2023-03-03T13:45:23.868Z,5.90
2023-03-03T13:50:23.807Z,5.90
2023-03-03T13:55:23.621Z,5.70
2023-03-03T14:00:23.628Z,6.80
2023-03-03T14:05:23.515Z,6.20
2023-03-03T14:10:23.601Z,7.20
2023-03-03T14:15:23.327Z,7.20
2023-03-03T14:20:23.302Z,6.70
2023-03-03T14:25:23.203Z,6.40
2023-03-03T14:30:23.262Z,5.90
2023-03-03T14:35:23.234Z,7.40
2023-03-03T14:40:23.110Z,6.50
2023-03-03T14:45:29.549Z,6.10
2023-03-03T14:50:24.171Z,5.80
2023-03-03T14:55:22.896Z,6.00
2023-03-03T15:00:23.027Z,6.10
2023-03-03T15:05:22.730Z,6.30
2023-03-03T15:10:22.724Z,6.90
2023-03-03T15:15:22.639Z,6.80
2023-03-03T15:20:22.568Z,5.90
2023-03-03T15:25:24.114Z,5.70
2023-03-03T15:30:22.398Z,6.10
2023-03-03T15:35:22.339Z,5.60
2023-03-03T15:40:22.308Z,5.90
2023-03-03T15:45:22.200Z,5.20
2023-03-03T15:50:22.160Z,6.50
2023-03-03T15:55:22.103Z,6.60
2023-03-03T16:00:21.955Z,7.70
2023-03-03T16:05:21.928Z,8.50
2023-03-03T16:10:21.874Z,7.60
2023-03-03T16:15:21.842Z,8.10
2023-03-03T16:20:21.695Z,9.30
2023-03-03T16:25:21.631Z,9.30
2023-03-03T16:30:21.706Z,10.10
2023-03-03T16:35:21.593Z,12.00
2023-03-03T16:40:21.484Z,12.50
2023-03-03T16:45:22.451Z,11.80
2023-03-03T16:50:21.345Z,12.40
2023-03-03T16:55:21.318Z,11.40
2023-03-03T17:00:21.211Z,12.60
2023-03-03T17:05:21.173Z,13.80
2023-03-03T17:10:21.096Z,14.60
2023-03-03T17:15:21.045Z,14.60
2023-03-03T17:20:20.949Z,13.00
2023-03-03T17:25:20.876Z,12.50
2023-03-03T17:30:22.315Z,13.80
2023-03-03T17:35:20.813Z,12.80
2023-03-03T17:40:20.696Z,13.80
2023-03-03T17:45:20.619Z,13.50
2023-03-03T17:50:20.727Z,14.40
2023-03-03T17:55:20.481Z,16.20
2023-03-03T18:00:20.416Z,17.20
2023-03-03T18:05:20.426Z,16.20
2023-03-03T18:10:20.322Z,14.50
2023-03-03T18:15:20.240Z,17.00
2023-03-03T18:20:20.279Z,18.30
2023-03-03T18:25:20.148Z,15.10
2023-03-03T18:30:20.089Z,16.50
2023-03-03T18:35:20.048Z,17.90
2023-03-03T18:40:19.970Z,18.80
2023-03-03T18:45:19.979Z,18.90
2023-03-03T18:50:19.900Z,18.30
2023-03-03T18:55:19.908Z,18.70
2023-03-03T19:00:19.668Z,17.40
2023-03-03T19:05:19.721Z,19.60
2023-03-03T19:10:19.749Z,19.90
2023-03-03T19:15:19.621Z,18.70
2023-03-03T19:20:19.631Z,18.10
2023-03-03T19:25:19.550Z,17.60
2023-03-03T19:30:19.258Z,16.20
2023-03-03T19:35:19.322Z,16.60
2023-03-03T19:40:19.174Z,17.30
2023-03-03T19:45:19.105Z,17.50
2023-03-03T19:50:19.082Z,17.60
2023-03-03T19:55:18.933Z,15.30
2023-03-03T20:00:19.203Z,16.90
2023-03-03T20:05:18.980Z,15.40
2023-03-03T20:10:18.931Z,16.80
2023-03-03T20:15:18.813Z,15.90
2023-03-03T20:20:18.824Z,16.10
2023-03-03T20:25:18.623Z,16.80
2023-03-03T20:30:18.598Z,14.90
2023-03-03T20:35:18.535Z,15.40
2023-03-03T20:40:18.448Z,14.90
2023-03-03T20:45:18.377Z,17.10
2023-03-03T20:50:18.322Z,15.40
2023-03-03T20:55:18.180Z,15.50
2023-03-03T21:00:18.248Z,15.70
2023-03-03T21:05:18.040Z,15.90
2023-03-03T21:10:18.145Z,17.20
2023-03-03T21:15:17.908Z,16.50
2023-03-03T21:20:17.870Z,16.80
2023-03-03T21:25:17.812Z,16.80
2023-03-03T21:30:17.735Z,15.50
2023-03-03T21:35:17.670Z,19.50
2023-03-03T21:40:17.732Z,17.80
2023-03-03T21:45:17.527Z,19.70
2023-03-03T21:50:17.477Z,20.20
2023-03-03T21:55:17.632Z,19.80
2023-03-03T22:00:17.907Z,21.00
2023-03-03T22:05:17.322Z,21.70
2023-03-03T22:10:17.302Z,21.80
2023-03-03T22:15:17.212Z,20.60
2023-03-03T22:20:17.203Z,23.40
2023-03-03T22:25:17.034Z,19.70
2023-03-03T22:30:17.022Z,21.60
2023-03-03T22:35:16.947Z,20.80
2023-03-03T22:40:16.885Z,22.00
2023-03-03T22:45:17.587Z,21.70
2023-03-03T22:50:16.857Z,21.00
2023-03-03T22:55:16.652Z,21.50
2023-03-03T23:00:16.734Z,18.70
2023-03-03T23:05:16.705Z,18.50
2023-03-03T23:10:16.556Z,18.40
2023-03-03T23:15:16.402Z,17.40
2023-03-03T23:20:16.329Z,17.40
2023-03-03T23:25:16.274Z,15.80
2023-03-03T23:30:16.214Z,17.30
2023-03-03T23:35:16.165Z,16.60
2023-03-03T23:40:16.429Z,17.10
2023-03-03T23:45:16.139Z,15.90
2023-03-03T23:50:15.946Z,16.30
2023-03-03T23:55:15.876Z,14.60
